Mt Bomar Mars — 9HCM9 — position and weather

sailwx.info

Track history (hours):
 
Tides and Currents Weather Stations Pressure Air Temp Water Temp Dewpoint Dewpoint Depression Visibility Wind Speed Wind Dir Waves Ship Positions

Mt Bomar Mars

Last reported at 2014-Dec-20 16:33 UTC. Time now 2014-Dec-20 17:18 UTC.
Position N 37°37' W 009°38'.

Length 107 m; draft 6.7 m.

Type: Tanker. MMSI: 256784000.

Date/timePositionNaut miles runAvg speedWind from/ knotsBaromVisibWave heightAir tempDewpointWater temp
2014-Dec-20 16:33N 37°37' W 009°38'1110.8
2014-Dec-20 15:32N 37°27' W 009°35'1110.9
2014-Dec-20 14:33N 37°16' W 009°32'1110.7
2014-Dec-20 13:33N 37°06' W 009°29'1111.0
2014-Dec-20 12:34N 36°55' W 009°25'1110.7
2014-Dec-20 11:33N 36°46' W 009°18'1211.0
2014-Dec-20 10:30N 36°39' W 009°06'1111.6
2014-Dec-20 09:34N 36°37' W 008°53'1211.7
2014-Dec-20 08:33N 36°34' W 008°39'1211.6
2014-Dec-20 07:33N 36°31' W 008°25'14111.7
2014-Dec-19 19:32N 35°58' W 005°35'9 9.8
2014-Dec-19 18:33N 36°01' W 005°23'7 7.4
2014-Dec-19 17:33N 35°54' W 005°19'0 0.0
2014-Dec-19 16:33N 35°54' W 005°19'0 0.0
2014-Dec-19 15:33N 35°54' W 005°19'0 0.0
2014-Dec-19 14:33N 35°54' W 005°19'0 0.0
2014-Dec-19 13:33N 35°54' W 005°19'0 0.0
2014-Dec-19 12:33N 35°54' W 005°19'0 0.0
2014-Dec-19 11:33N 35°54' W 005°19'0 0.0
2014-Dec-19 10:33N 35°54' W 005°19'0 0.0
2014-Dec-19 09:33N 35°54' W 005°19'1 1.5
2014-Dec-19 08:34N 35°55' W 005°18'3 2.5
2014-Dec-19 07:33N 35°56' W 005°15'21010.5
2014-Dec-18 11:33N 37°09' W 001°10'1211.6
2014-Dec-18 10:31N 37°17' W 000°59'1111.8
2014-Dec-18 09:33N 37°24' W 000°48'1211.7
2014-Dec-18 08:33N 37°32' W 000°37'1211.7
2014-Dec-18 07:33N 37°41' W 000°28'1111.5
2014-Dec-18 06:33N 37°51' W 000°20'1111.1
2014-Dec-18 05:33N 38°00' W 000°12'12411.2
2014-Dec-17 18:28N 39°41' E 001°20'1010.9
2014-Dec-17 17:34N 39°49' E 001°28'1110.9
2014-Dec-17 16:33N 39°57' E 001°36'1111.1
2014-Dec-17 15:33N 40°06' E 001°45'1111.3
2014-Dec-17 14:33N 40°15' E 001°54'1110.8
2014-Dec-17 13:33N 40°24' E 002°03'1110.5
2014-Dec-17 12:33N 40°32' E 002°11'1110.8
2014-Dec-17 11:33N 40°41' E 002°20'1010.2
2014-Dec-17 10:33N 40°49' E 002°28'10 9.6
2014-Dec-17 09:33N 40°57' E 002°36'1111.1
2014-Dec-17 08:33N 41°06' E 002°45'1511.9
2014-Dec-17 07:17N 41°18' E 002°57'11311.7
2014-Dec-16 21:33N 42°46' E 004°32'1211.5
2014-Dec-16 20:33N 42°55' E 004°42'1311.9
2014-Dec-16 19:30N 43°05' E 004°53'1011.1
2014-Dec-16 18:33N 43°14' E 005°00'1111.3
2014-Dec-16 17:33N 43°24' E 004°54'1 1.2
2014-Dec-16 16:34N 43°25' E 004°53'0 0.0
2014-Dec-16 15:34N 43°25' E 004°53'0 0.0
2014-Dec-16 14:34N 43°25' E 004°53'0 0.0
2014-Dec-16 13:34N 43°25' E 004°53'0 0.0
2014-Dec-16 12:34N 43°25' E 004°53'0 0.0
2014-Dec-16 11:34N 43°25' E 004°53'0 0.0
2014-Dec-16 10:34N 43°25' E 004°53'0 0.0
2014-Dec-16 09:34N 43°25' E 004°53'0 0.0
2014-Dec-16 08:34N 43°25' E 004°53'0 0.0
2014-Dec-16 07:34N 43°25' E 004°53'0 0.0
2014-Dec-16 06:28N 43°25' E 004°53'0 0.0
2014-Dec-16 05:34N 43°25' E 004°53'0 0.0
2014-Dec-16 04:28N 43°25' E 004°53'0 0.0
2014-Dec-16 03:31N 43°25' E 004°53'0 0.0
2014-Dec-16 02:30N 43°25' E 004°53'0 0.0
2014-Dec-16 01:04N 43°25' E 004°53'0 0.0
2014-Dec-16 00:07N 43°25' E 004°53'0 0.0
2014-Dec-15 23:34N 43°25' E 004°53'0 0.0
2014-Dec-15 22:31N 43°25' E 004°53'0 0.0
2014-Dec-15 21:31N 43°25' E 004°53'0 0.0
2014-Dec-15 20:31N 43°25' E 004°53'0 0.0
2014-Dec-15 19:34N 43°25' E 004°53'0 0.0
2014-Dec-15 18:28N 43°25' E 004°53'0 0.0
2014-Dec-15 17:34N 43°25' E 004°53'0 0.0
2014-Dec-15 16:34N 43°25' E 004°53'0 0.0
2014-Dec-15 15:34N 43°25' E 004°53'0 0.0
2014-Dec-15 14:33N 43°25' E 004°53'0 0.0
2014-Dec-15 13:34N 43°25' E 004°53'0 0.3
2014-Dec-15 12:33N 43°25' E 004°53'2 1.9
2014-Dec-15 11:32N 43°24' E 004°56'0 0.0
2014-Dec-15 10:32N 43°24' E 004°56'0 0.0
2014-Dec-15 09:32N 43°24' E 004°56'0 0.0
2014-Dec-15 08:32N 43°24' E 004°56'0 0.0
2014-Dec-15 07:32N 43°24' E 004°56'0 0.0
2014-Dec-15 06:32N 43°24' E 004°56'0 0.0
2014-Dec-15 05:29N 43°24' E 004°56'0 0.0
2014-Dec-15 04:32N 43°24' E 004°56'0 0.1
2014-Dec-15 03:33N 43°24' E 004°55'1 1.0
2014-Dec-15 02:33N 43°23' E 004°56'1010.3
2014-Dec-15 01:34N 43°14' E 005°02'3411.1
2014-Dec-14 22:30N 42°54' E 005°40'1612.4
2014-Dec-14 21:12N 42°50' E 006°00'2612.3
2014-Dec-14 19:07N 42°48' E 006°35'712.3
2014-Dec-14 18:32N 42°50' E 006°45'1212.4
2014-Dec-14 17:33N 42°53' E 007°01'1712.3
2014-Dec-14 16:10N 42°57' E 007°23'60 8.7
2014-Dec-14 09:18N 43°32' E 008°30'7 8.9
2014-Dec-14 08:32N 43°38' E 008°35'9 8.7
2014-Dec-14 07:33N 43°45' E 008°42'9 9.0
2014-Dec-14 06:34N 43°52' E 008°49'9 8.9
2014-Dec-14 05:34N 43°60' E 008°56'7 7.5
2014-Dec-14 04:33N 43°58' E 009°06'9 8.9
2014-Dec-14 03:34N 43°52' E 009°15'9 8.7
2014-Dec-14 02:33N 43°47' E 009°25'9 8.7
2014-Dec-14 01:33N 43°42' E 009°34'9 8.7
2014-Dec-14 00:34N 43°38' E 009°45'8 7.7
2014-Dec-13 23:33N 43°34' E 009°54'9 8.7
2014-Dec-13 22:34N 43°30' E 010°05'9 9.2
2014-Dec-13 21:34N 43°32' E 010°17'3 2.8
2014-Dec-13 20:32N 43°35' E 010°19'0 0.0
2014-Dec-13 19:32N 43°35' E 010°19'0 0.0
2014-Dec-13 18:32N 43°35' E 010°19'0 0.0
2014-Dec-13 17:32N 43°35' E 010°19'0 0.0
2014-Dec-13 16:32N 43°35' E 010°19'0 0.0
2014-Dec-13 15:32N 43°35' E 010°19'0 0.0
2014-Dec-13 14:32N 43°35' E 010°19'0 0.0
2014-Dec-13 13:32N 43°35' E 010°19'0 0.0
2014-Dec-13 12:32N 43°35' E 010°19'0 0.0
2014-Dec-13 11:32N 43°35' E 010°19'0 0.0
2014-Dec-13 10:32N 43°35' E 010°19'0 0.0
2014-Dec-13 09:32N 43°35' E 010°19'0 0.0
2014-Dec-13 08:32N 43°35' E 010°19'0 0.0
2014-Dec-13 07:29N 43°35' E 010°19'0 0.0
2014-Dec-13 06:29N 43°35' E 010°19'0 0.0
2014-Dec-13 05:32N 43°35' E 010°19'0 0.0
2014-Dec-13 04:32N 43°35' E 010°19'0 0.0
2014-Dec-13 03:32N 43°35' E 010°19'0 0.0
2014-Dec-13 02:32N 43°35' E 010°19'0 0.0
2014-Dec-13 01:32N 43°35' E 010°19'0 0.0
2014-Dec-13 00:32N 43°35' E 010°19'0 0.0
2014-Dec-12 23:32N 43°35' E 010°19'0 0.0
2014-Dec-12 22:32N 43°35' E 010°19'0 0.0
2014-Dec-12 21:32N 43°35' E 010°19'0 0.0
2014-Dec-12 20:32N 43°35' E 010°19'0 0.0
2014-Dec-12 19:32N 43°35' E 010°19'0 0.0
2014-Dec-12 18:32N 43°35' E 010°19'0 0.0
2014-Dec-12 17:32N 43°35' E 010°19'1 0.7
2014-Dec-12 16:33N 43°34' E 010°19'5 4.8
2014-Dec-12 15:34N 43°31' E 010°14'8 7.7
2014-Dec-12 14:33N 43°25' E 010°07'1211.6
2014-Dec-12 13:33N 43°17' E 009°55'1211.6
2014-Dec-12 12:33N 43°14' E 009°40'1411.8
2014-Dec-12 11:23N 43°10' E 009°22'19511.4
2014-Dec-11 18:11N 41°58' E 005°15'16 8.9
2014-Dec-11 16:24N 42°01' E 004°54'8 8.7
2014-Dec-11 15:25N 41°55' E 004°46'17 8.3
2014-Dec-11 13:25N 41°43' E 004°30'16 7.8
2014-Dec-11 11:19N 41°33' E 004°13'6 7.8
2014-Dec-11 10:33N 41°30' E 004°07'8 7.9
2014-Dec-11 09:33N 41°26' E 003°57'8 8.5
2014-Dec-11 08:33N 41°25' E 003°46'9 9.0
2014-Dec-11 07:32N 41°26' E 003°34'9 9.4
2014-Dec-11 06:33N 41°26' E 003°22'1010.1
2014-Dec-11 05:33N 41°24' E 003°08'9 9.3
2014-Dec-11 04:33N 41°17' E 003°01'1110.3
2014-Dec-11 03:31N 41°08' E 002°53'10 9.9
2014-Dec-11 02:32N 40°60' E 002°45'1010.5
2014-Dec-11 01:33N 40°52' E 002°37'1110.9
2014-Dec-11 00:33N 40°43' E 002°28'1110.7
2014-Dec-10 23:33N 40°35' E 002°20'1010.5
2014-Dec-10 22:33N 40°26' E 002°12'1110.7
2014-Dec-10 21:33N 40°18' E 002°03'1110.9
2014-Dec-10 20:33N 40°09' E 001°54'1010.5
2014-Dec-10 19:33N 40°01' E 001°46'1010.2
2014-Dec-10 18:33N 39°53' E 001°37'1010.0
2014-Dec-10 17:33N 39°45' E 001°30'  
Track history (hours):
 
Tides and Currents Weather Stations Pressure Air Temp Water Temp Dewpoint Dewpoint Depression Visibility Wind Speed Wind Dir Waves Ship Positions

Mt Bomar Mars

Last reported at 2014-Dec-20 16:33 UTC. Time now 2014-Dec-20 17:18 UTC.
Position N 37°37' W 009°38'.

Length 107 m; draft 6.7 m.

Type: Tanker. MMSI: 256784000.

Date/timePositionNaut miles runAvg speedWind from/ knotsBaromVisibWave heightAir tempDewpointWater temp
2014-Dec-20 16:33N 37°37' W 009°38'1110.8
2014-Dec-20 15:32N 37°27' W 009°35'1110.9
2014-Dec-20 14:33N 37°16' W 009°32'1110.7
2014-Dec-20 13:33N 37°06' W 009°29'1111.0
2014-Dec-20 12:34N 36°55' W 009°25'1110.7
2014-Dec-20 11:33N 36°46' W 009°18'1211.0
2014-Dec-20 10:30N 36°39' W 009°06'1111.6
2014-Dec-20 09:34N 36°37' W 008°53'1211.7
2014-Dec-20 08:33N 36°34' W 008°39'1211.6
2014-Dec-20 07:33N 36°31' W 008°25'14111.7
2014-Dec-19 19:32N 35°58' W 005°35'9 9.8
2014-Dec-19 18:33N 36°01' W 005°23'7 7.4
2014-Dec-19 17:33N 35°54' W 005°19'0 0.0
2014-Dec-19 16:33N 35°54' W 005°19'0 0.0
2014-Dec-19 15:33N 35°54' W 005°19'0 0.0
2014-Dec-19 14:33N 35°54' W 005°19'0 0.0
2014-Dec-19 13:33N 35°54' W 005°19'0 0.0
2014-Dec-19 12:33N 35°54' W 005°19'0 0.0
2014-Dec-19 11:33N 35°54' W 005°19'0 0.0
2014-Dec-19 10:33N 35°54' W 005°19'0 0.0
2014-Dec-19 09:33N 35°54' W 005°19'1 1.5
2014-Dec-19 08:34N 35°55' W 005°18'3 2.5
2014-Dec-19 07:33N 35°56' W 005°15'21010.5
2014-Dec-18 11:33N 37°09' W 001°10'1211.6
2014-Dec-18 10:31N 37°17' W 000°59'1111.8
2014-Dec-18 09:33N 37°24' W 000°48'1211.7
2014-Dec-18 08:33N 37°32' W 000°37'1211.7
2014-Dec-18 07:33N 37°41' W 000°28'1111.5
2014-Dec-18 06:33N 37°51' W 000°20'1111.1
2014-Dec-18 05:33N 38°00' W 000°12'12411.2
2014-Dec-17 18:28N 39°41' E 001°20'1010.9
2014-Dec-17 17:34N 39°49' E 001°28'1110.9
2014-Dec-17 16:33N 39°57' E 001°36'1111.1
2014-Dec-17 15:33N 40°06' E 001°45'1111.3
2014-Dec-17 14:33N 40°15' E 001°54'1110.8
2014-Dec-17 13:33N 40°24' E 002°03'1110.5
2014-Dec-17 12:33N 40°32' E 002°11'1110.8
2014-Dec-17 11:33N 40°41' E 002°20'1010.2
2014-Dec-17 10:33N 40°49' E 002°28'10 9.6
2014-Dec-17 09:33N 40°57' E 002°36'1111.1
2014-Dec-17 08:33N 41°06' E 002°45'1511.9
2014-Dec-17 07:17N 41°18' E 002°57'11311.7
2014-Dec-16 21:33N 42°46' E 004°32'1211.5
2014-Dec-16 20:33N 42°55' E 004°42'1311.9
2014-Dec-16 19:30N 43°05' E 004°53'1011.1
2014-Dec-16 18:33N 43°14' E 005°00'1111.3
2014-Dec-16 17:33N 43°24' E 004°54'1 1.2
2014-Dec-16 16:34N 43°25' E 004°53'0 0.0
2014-Dec-16 15:34N 43°25' E 004°53'0 0.0
2014-Dec-16 14:34N 43°25' E 004°53'0 0.0
2014-Dec-16 13:34N 43°25' E 004°53'0 0.0
2014-Dec-16 12:34N 43°25' E 004°53'0 0.0
2014-Dec-16 11:34N 43°25' E 004°53'0 0.0
2014-Dec-16 10:34N 43°25' E 004°53'0 0.0
2014-Dec-16 09:34N 43°25' E 004°53'0 0.0
2014-Dec-16 08:34N 43°25' E 004°53'0 0.0
2014-Dec-16 07:34N 43°25' E 004°53'0 0.0
2014-Dec-16 06:28N 43°25' E 004°53'0 0.0
2014-Dec-16 05:34N 43°25' E 004°53'0 0.0
2014-Dec-16 04:28N 43°25' E 004°53'0 0.0
2014-Dec-16 03:31N 43°25' E 004°53'0 0.0
2014-Dec-16 02:30N 43°25' E 004°53'0 0.0
2014-Dec-16 01:04N 43°25' E 004°53'0 0.0
2014-Dec-16 00:07N 43°25' E 004°53'0 0.0
2014-Dec-15 23:34N 43°25' E 004°53'0 0.0
2014-Dec-15 22:31N 43°25' E 004°53'0 0.0
2014-Dec-15 21:31N 43°25' E 004°53'0 0.0
2014-Dec-15 20:31N 43°25' E 004°53'0 0.0
2014-Dec-15 19:34N 43°25' E 004°53'0 0.0
2014-Dec-15 18:28N 43°25' E 004°53'0 0.0
2014-Dec-15 17:34N 43°25' E 004°53'0 0.0
2014-Dec-15 16:34N 43°25' E 004°53'0 0.0
2014-Dec-15 15:34N 43°25' E 004°53'0 0.0
2014-Dec-15 14:33N 43°25' E 004°53'0 0.0
2014-Dec-15 13:34N 43°25' E 004°53'0 0.3
2014-Dec-15 12:33N 43°25' E 004°53'2 1.9
2014-Dec-15 11:32N 43°24' E 004°56'0 0.0
2014-Dec-15 10:32N 43°24' E 004°56'0 0.0
2014-Dec-15 09:32N 43°24' E 004°56'0 0.0
2014-Dec-15 08:32N 43°24' E 004°56'0 0.0
2014-Dec-15 07:32N 43°24' E 004°56'0 0.0
2014-Dec-15 06:32N 43°24' E 004°56'0 0.0
2014-Dec-15 05:29N 43°24' E 004°56'0 0.0
2014-Dec-15 04:32N 43°24' E 004°56'0 0.1
2014-Dec-15 03:33N 43°24' E 004°55'1 1.0
2014-Dec-15 02:33N 43°23' E 004°56'1010.3
2014-Dec-15 01:34N 43°14' E 005°02'3411.1
2014-Dec-14 22:30N 42°54' E 005°40'1612.4
2014-Dec-14 21:12N 42°50' E 006°00'2612.3
2014-Dec-14 19:07N 42°48' E 006°35'712.3
2014-Dec-14 18:32N 42°50' E 006°45'1212.4
2014-Dec-14 17:33N 42°53' E 007°01'1712.3
2014-Dec-14 16:10N 42°57' E 007°23'60 8.7
2014-Dec-14 09:18N 43°32' E 008°30'7 8.9
2014-Dec-14 08:32N 43°38' E 008°35'9 8.7
2014-Dec-14 07:33N 43°45' E 008°42'9 9.0
2014-Dec-14 06:34N 43°52' E 008°49'9 8.9
2014-Dec-14 05:34N 43°60' E 008°56'7 7.5
2014-Dec-14 04:33N 43°58' E 009°06'9 8.9
2014-Dec-14 03:34N 43°52' E 009°15'9 8.7
2014-Dec-14 02:33N 43°47' E 009°25'9 8.7
2014-Dec-14 01:33N 43°42' E 009°34'9 8.7
2014-Dec-14 00:34N 43°38' E 009°45'8 7.7
2014-Dec-13 23:33N 43°34' E 009°54'9 8.7
2014-Dec-13 22:34N 43°30' E 010°05'9 9.2
2014-Dec-13 21:34N 43°32' E 010°17'3 2.8
2014-Dec-13 20:32N 43°35' E 010°19'0 0.0
2014-Dec-13 19:32N 43°35' E 010°19'0 0.0
2014-Dec-13 18:32N 43°35' E 010°19'0 0.0
2014-Dec-13 17:32N 43°35' E 010°19'0 0.0
2014-Dec-13 16:32N 43°35' E 010°19'0 0.0
2014-Dec-13 15:32N 43°35' E 010°19'0 0.0
2014-Dec-13 14:32N 43°35' E 010°19'0 0.0
2014-Dec-13 13:32N 43°35' E 010°19'0 0.0
2014-Dec-13 12:32N 43°35' E 010°19'0 0.0
2014-Dec-13 11:32N 43°35' E 010°19'0 0.0
2014-Dec-13 10:32N 43°35' E 010°19'0 0.0
2014-Dec-13 09:32N 43°35' E 010°19'0 0.0
2014-Dec-13 08:32N 43°35' E 010°19'0 0.0
2014-Dec-13 07:29N 43°35' E 010°19'0 0.0
2014-Dec-13 06:29N 43°35' E 010°19'0 0.0
2014-Dec-13 05:32N 43°35' E 010°19'0 0.0
2014-Dec-13 04:32N 43°35' E 010°19'0 0.0
2014-Dec-13 03:32N 43°35' E 010°19'0 0.0
2014-Dec-13 02:32N 43°35' E 010°19'0 0.0
2014-Dec-13 01:32N 43°35' E 010°19'0 0.0
2014-Dec-13 00:32N 43°35' E 010°19'0 0.0
2014-Dec-12 23:32N 43°35' E 010°19'0 0.0
2014-Dec-12 22:32N 43°35' E 010°19'0 0.0
2014-Dec-12 21:32N 43°35' E 010°19'0 0.0
2014-Dec-12 20:32N 43°35' E 010°19'0 0.0
2014-Dec-12 19:32N 43°35' E 010°19'0 0.0
2014-Dec-12 18:32N 43°35' E 010°19'0 0.0
2014-Dec-12 17:32N 43°35' E 010°19'1 0.7
2014-Dec-12 16:33N 43°34' E 010°19'5 4.8
2014-Dec-12 15:34N 43°31' E 010°14'8 7.7
2014-Dec-12 14:33N 43°25' E 010°07'1211.6
2014-Dec-12 13:33N 43°17' E 009°55'1211.6
2014-Dec-12 12:33N 43°14' E 009°40'1411.8
2014-Dec-12 11:23N 43°10' E 009°22'19511.4
2014-Dec-11 18:11N 41°58' E 005°15'16 8.9
2014-Dec-11 16:24N 42°01' E 004°54'8 8.7
2014-Dec-11 15:25N 41°55' E 004°46'17 8.3
2014-Dec-11 13:25N 41°43' E 004°30'16 7.8
2014-Dec-11 11:19N 41°33' E 004°13'6 7.8
2014-Dec-11 10:33N 41°30' E 004°07'8 7.9
2014-Dec-11 09:33N 41°26' E 003°57'8 8.5
2014-Dec-11 08:33N 41°25' E 003°46'9 9.0
2014-Dec-11 07:32N 41°26' E 003°34'9 9.4
2014-Dec-11 06:33N 41°26' E 003°22'1010.1
2014-Dec-11 05:33N 41°24' E 003°08'9 9.3
2014-Dec-11 04:33N 41°17' E 003°01'1110.3
2014-Dec-11 03:31N 41°08' E 002°53'10 9.9
2014-Dec-11 02:32N 40°60' E 002°45'1010.5
2014-Dec-11 01:33N 40°52' E 002°37'1110.9
2014-Dec-11 00:33N 40°43' E 002°28'1110.7
2014-Dec-10 23:33N 40°35' E 002°20'1010.5
2014-Dec-10 22:33N 40°26' E 002°12'1110.7
2014-Dec-10 21:33N 40°18' E 002°03'1110.9
2014-Dec-10 20:33N 40°09' E 001°54'1010.5
2014-Dec-10 19:33N 40°01' E 001°46'1010.2
2014-Dec-10 18:33N 39°53' E 001°37'1010.0
2014-Dec-10 17:33N 39°45' E 001°30'  

Dump ship's entire track history